Time;durP1;ratioP1;P1;durP2;ratioP2;P2;SDS_P1;SDS_P2;PMS_P1;PMS_P2;Temp;Humidity;BMP_temperature;BMP_pressure;BME280_temperature;BME280_humidity;BME280_pressure;Samples;Min_cycle;Max_cycle;Signal;HPM_P1;HPM_P2
2023/12/05 00:01:03;;;;;;;9.95;7.40;;;;;;;5.78;65.43;99751.78;5069941;28;20075;-72
2023/12/05 00:03:31;;;;;;;10.23;7.90;;;;;;;5.79;65.35;99745.41;5066175;28;20048;-72
2023/12/05 00:05:59;;;;;;;10.52;7.68;;;;;;;5.80;65.00;99752.38;5071362;28;20049;-71
2023/12/05 00:08:27;;;;;;;14.63;7.07;;;;;;;5.79;65.17;99756.06;5063772;28;20050;-71
2023/12/05 00:10:55;;;;;;;9.25;7.25;;;;;;;5.80;65.01;99744.38;5066074;28;20048;-72
2023/12/05 00:13:24;;;;;;;8.85;6.93;;;;;;;5.78;65.62;99739.25;5065836;28;20048;-70
2023/12/05 00:15:52;;;;;;;9.90;7.50;;;;;;;5.80;65.38;99739.03;5058013;28;20045;-70
2023/12/05 00:18:21;;;;;;;10.95;7.63;;;;;;;5.79;65.22;99737.41;5065314;28;20068;-71
2023/12/05 00:20:49;;;;;;;12.27;7.55;;;;;;;5.77;65.56;99734.97;5058995;28;20106;-71
2023/12/05 00:23:17;;;;;;;10.27;7.55;;;;;;;5.80;65.24;99739.84;5066923;28;20056;-71
2023/12/05 00:25:45;;;;;;;8.88;7.07;;;;;;;5.79;65.41;99737.41;5060427;28;20049;-70
2023/12/05 00:28:13;;;;;;;10.90;7.63;;;;;;;5.78;65.40;99733.94;5065330;28;20496;-71
2023/12/05 00:30:41;;;;;;;9.68;7.43;;;;;;;5.79;65.42;99734.75;5052288;28;20044;-71
2023/12/05 00:33:09;;;;;;;9.13;7.47;;;;;;;5.79;65.60;99727.56;5061932;28;20041;-70
2023/12/05 00:35:38;;;;;;;9.45;6.97;;;;;;;5.78;65.54;99725.09;5064585;28;20041;-72
2023/12/05 00:38:06;;;;;;;8.98;7.18;;;;;;;5.79;65.40;99726.75;5072792;28;20053;-70
2023/12/05 00:40:33;;;;;;;11.32;7.18;;;;;;;5.78;65.73;99728.59;5055030;28;20050;-71
2023/12/05 00:43:01;;;;;;;9.25;7.28;;;;;;;5.80;65.54;99731.03;5058111;28;20360;-72
2023/12/05 00:45:29;;;;;;;10.60;7.57;;;;;;;5.79;65.50;99719.56;5063189;28;20048;-71
2023/12/05 00:47:57;;;;;;;11.50;8.15;;;;;;;5.79;65.69;99724.06;5064842;28;20045;-71
2023/12/05 00:50:25;;;;;;;12.10;7.78;;;;;;;5.78;65.55;99723.25;5065758;28;20689;-72
2023/12/05 00:53:05;;;;;;;9.40;7.07;;;;;;;5.77;65.54;99721.63;5067700;28;20056;-71
2023/12/05 00:55:35;;;;;;;9.13;7.13;;;;;;;5.77;65.50;99721.63;5064285;28;20041;-72
2023/12/05 00:58:03;;;;;;;10.98;7.72;;;;;;;5.76;65.74;99714.66;5052918;28;20110;-72
2023/12/05 01:00:31;;;;;;;9.48;7.32;;;;;;;5.77;65.49;99729.63;5052684;28;20057;-72
2023/12/05 01:02:59;;;;;;;10.38;7.05;;;;;;;5.77;65.71;99729.63;5062992;28;20045;-71
2023/12/05 01:05:27;;;;;;;11.35;7.93;;;;;;;5.76;65.79;99725.31;5058109;28;20049;-72
2023/12/05 01:07:55;;;;;;;10.50;7.43;;;;;;;5.75;65.89;99721.03;5069486;28;20470;-71
2023/12/05 01:10:25;;;;;;;9.98;7.47;;;;;;;5.77;65.79;99718.97;5063179;28;20079;-71
2023/12/05 01:12:53;;;;;;;10.35;7.82;;;;;;;5.77;66.19;99724.28;5070592;28;20076;-72
2023/12/05 01:15:21;;;;;;;11.38;7.80;;;;;;;5.75;65.74;99723.69;5062004;28;20060;-72
2023/12/05 01:17:49;;;;;;;12.10;8.02;;;;;;;5.76;66.16;99721.84;5052682;28;20144;-71
2023/12/05 01:20:17;;;;;;;10.68;8.15;;;;;;;5.76;65.98;99727.19;5057259;28;20041;-69
2023/12/05 01:22:45;;;;;;;10.18;7.65;;;;;;;5.75;65.69;99714.88;5062459;28;20456;-71
2023/12/05 01:25:13;;;;;;;11.82;7.50;;;;;;;5.75;65.62;99721.03;5054564;28;20067;-71
2023/12/05 01:27:42;;;;;;;10.15;7.57;;;;;;;5.76;65.86;99714.66;5064068;28;20040;-72
2023/12/05 01:30:10;;;;;;;10.60;7.13;;;;;;;5.76;65.61;99719.19;5056783;28;20063;-71
2023/12/05 01:32:38;;;;;;;12.05;8.07;;;;;;;5.75;65.82;99710.38;5064225;28;20040;-71
2023/12/05 01:35:07;;;;;;;10.82;7.97;;;;;;;5.76;66.31;99719.19;5055988;28;20075;-71
2023/12/05 01:37:37;;;;;;;10.63;7.35;;;;;;;5.76;65.88;99708.53;5060085;28;20102;-71
2023/12/05 01:40:08;;;;;;;10.55;8.05;;;;;;;5.74;66.48;99714.06;5075218;28;20465;-72
2023/12/05 01:42:37;;;;;;;10.75;7.60;;;;;;;5.75;65.92;99710.38;5050433;28;20049;-71
2023/12/05 01:45:09;;;;;;;10.82;7.80;;;;;;;5.74;65.97;99702.59;5064261;28;20049;-70
2023/12/05 01:47:39;;;;;;;11.00;8.02;;;;;;;5.75;66.14;99709.56;5063155;28;20053;-70
2023/12/05 01:50:10;;;;;;;12.25;8.50;;;;;;;5.74;66.10;99706.06;5068142;28;20120;-71
2023/12/05 01:52:41;;;;;;;11.60;8.02;;;;;;;5.75;66.18;99705.03;5064181;28;20265;-71
2023/12/05 01:55:10;;;;;;;11.02;7.25;;;;;;;5.76;66.23;99711.19;5060401;28;20126;-71
2023/12/05 01:57:38;;;;;;;11.32;8.07;;;;;;;5.76;66.08;99712.00;5064378;28;20099;-72
2023/12/05 02:00:10;;;;;;;12.45;8.45;;;;;;;5.75;66.01;99707.69;5058992;28;20056;-71
2023/12/05 02:02:38;;;;;;;9.43;7.55;;;;;;;5.75;66.38;99714.88;5063197;28;20048;-72
2023/12/05 02:05:07;;;;;;;11.38;7.68;;;;;;;5.76;66.46;99719.19;5064398;28;20049;-71
2023/12/05 02:07:36;;;;;;;10.50;7.80;;;;;;;5.75;66.20;99722.88;5064163;28;20482;-70
2023/12/05 02:10:06;;;;;;;10.88;7.70;;;;;;;5.76;66.23;99725.31;5078347;28;20048;-71
2023/12/05 02:12:34;;;;;;;11.73;8.25;;;;;;;5.75;66.39;99722.88;5062148;28;20049;-71
2023/12/05 02:15:03;;;;;;;10.57;7.97;;;;;;;5.75;66.31;99722.88;5057991;28;20113;-71
2023/12/05 02:17:40;;;;;;;11.02;8.55;;;;;;;5.75;66.24;99722.88;5057853;28;20123;-71
2023/12/05 02:20:16;;;;;;;12.93;8.75;;;;;;;5.74;66.43;99719.41;5059803;28;20049;-70
2023/12/05 02:23:24;;;;;;;11.73;8.00;;;;;;;5.73;66.66;99723.09;5064083;28;20045;-70
2023/12/05 02:26:07;;;;;;;10.38;7.75;;;;;;;5.75;66.53;99722.88;5066169;28;20048;-72
2023/12/05 02:28:37;;;;;;;9.80;7.53;;;;;;;5.74;66.14;99721.25;5061150;28;20430;-71
2023/12/05 02:31:05;;;;;;;10.27;7.88;;;;;;;5.74;66.79;99724.72;5069195;28;20118;-72
2023/12/05 02:33:35;;;;;;;11.35;8.57;;;;;;;5.75;66.73;99721.03;5063597;28;20106;-71
2023/12/05 02:36:14;;;;;;;10.40;7.43;;;;;;;5.75;66.56;99723.69;5054826;28;20053;-71
2023/12/05 02:38:49;;;;;;;11.43;8.60;;;;;;;5.73;66.51;99716.94;5063138;28;20095;-72
2023/12/05 02:41:21;;;;;;;12.20;8.60;;;;;;;5.71;67.15;99713.69;5059654;28;20040;-71
2023/12/05 02:43:58;;;;;;;11.45;8.55;;;;;;;5.76;66.88;99725.31;5053508;28;20045;-71
2023/12/05 02:46:27;;;;;;;10.98;8.55;;;;;;;5.78;67.11;99725.09;5058037;28;20041;-71
2023/12/05 02:48:57;;;;;;;11.48;8.95;;;;;;;5.76;66.84;99720.00;5052338;28;20056;-71
2023/12/05 02:51:25;;;;;;;11.88;9.02;;;;;;;5.78;66.54;99719.78;5057504;28;20060;-72
2023/12/05 02:53:52;;;;;;;11.95;8.43;;;;;;;5.79;66.64;99724.06;5069690;28;20044;-72
2023/12/05 02:56:20;;;;;;;11.38;8.38;;;;;;;5.79;66.64;99721.41;5061854;28;20111;-71
2023/12/05 02:58:48;;;;;;;11.35;8.05;;;;;;;5.78;67.10;99720.59;5060722;28;20048;-70
2023/12/05 03:01:17;;;;;;;12.13;8.82;;;;;;;5.79;67.15;99713.41;5061607;28;20529;-72
2023/12/05 03:03:45;;;;;;;11.98;9.13;;;;;;;5.78;66.90;99711.78;5070625;28;20049;-72
2023/12/05 03:06:13;;;;;;;11.90;8.80;;;;;;;5.80;66.88;99707.84;5055120;28;20050;-72
2023/12/05 03:08:41;;;;;;;11.98;8.98;;;;;;;5.79;67.16;99705.41;5059663;28;20044;-72
2023/12/05 03:11:08;;;;;;;11.95;8.95;;;;;;;5.79;66.87;99713.41;5078720;28;20048;-71
2023/12/05 03:13:39;;;;;;;11.98;8.80;;;;;;;5.79;66.95;99711.56;5066717;28;20045;-71
2023/12/05 03:16:08;;;;;;;12.27;8.73;;;;;;;5.80;67.34;99707.03;5060660;28;20049;-71
2023/12/05 03:18:37;;;;;;;11.52;8.85;;;;;;;5.79;66.89;99703.56;5063185;28;20069;-72
2023/12/05 03:21:06;;;;;;;11.00;8.68;;;;;;;5.81;66.98;99709.50;5066395;28;20060;-71
2023/12/05 03:23:34;;;;;;;11.40;8.65;;;;;;;5.80;66.55;99699.03;5062389;28;20049;-71
2023/12/05 03:26:02;;;;;;;11.32;8.55;;;;;;;5.79;67.21;99698.22;5051792;28;20073;-72
2023/12/05 03:28:29;;;;;;;10.43;8.35;;;;;;;5.80;67.10;99699.88;5061665;28;20513;-72
2023/12/05 03:30:57;;;;;;;15.48;8.98;;;;;;;5.79;67.39;99692.91;5059525;28;20156;-70
2023/12/05 03:33:25;;;;;;;12.75;9.30;;;;;;;5.79;67.29;99692.09;5063388;28;20072;-70
2023/12/05 03:35:54;;;;;;;12.45;9.35;;;;;;;5.81;66.93;99698.00;5052640;28;20056;-70
2023/12/05 03:38:22;;;;;;;13.75;10.10;;;;;;;5.80;67.37;99694.53;5063884;28;20397;-70
2023/12/05 03:40:50;;;;;;;12.27;8.77;;;;;;;5.79;67.28;99695.56;5066548;28;20056;-71
2023/12/05 03:43:18;;;;;;;12.73;9.07;;;;;;;5.80;67.11;99701.72;5062273;28;20107;-71
2023/12/05 03:45:45;;;;;;;12.40;9.35;;;;;;;5.79;67.14;99698.22;5054427;28;20045;-70
2023/12/05 03:48:13;;;;;;;12.75;9.75;;;;;;;5.79;67.34;99700.09;5057689;28;20051;-70
2023/12/05 03:50:41;;;;;;;13.25;9.38;;;;;;;5.78;67.42;99709.94;5056724;28;20040;-71
2023/12/05 03:53:10;;;;;;;12.82;9.30;;;;;;;5.77;67.43;99704.81;5063352;28;20099;-71
2023/12/05 03:55:39;;;;;;;13.00;9.27;;;;;;;5.68;67.48;99696.28;5067308;28;20044;-72
2023/12/05 03:58:06;;;;;;;12.05;9.50;;;;;;;5.77;67.58;99710.97;5073396;28;20057;-71
2023/12/05 04:00:34;;;;;;;14.02;10.35;;;;;;;5.79;67.63;99710.75;5054158;28;20487;-71
2023/12/05 04:03:02;;;;;;;13.52;9.90;;;;;;;5.79;67.56;99718.75;5064302;28;20055;-72
2023/12/05 04:05:30;;;;;;;12.98;9.77;;;;;;;5.76;67.42;99720.00;5059510;28;20049;-71
2023/12/05 04:07:58;;;;;;;13.45;10.25;;;;;;;5.79;67.59;99727.56;5065345;28;20083;-72
2023/12/05 04:10:27;;;;;;;13.27;10.27;;;;;;;5.78;67.71;99730.44;5064631;28;20049;-71
2023/12/05 04:12:55;;;;;;;13.68;10.48;;;;;;;5.77;67.98;99734.97;5073062;28;20056;-71
2023/12/05 04:15:23;;;;;;;14.63;10.95;;;;;;;5.75;67.83;99731.69;5064074;28;20044;-73
2023/12/05 04:17:51;;;;;;;14.65;10.80;;;;;;;5.77;68.13;99734.97;5065914;28;20060;-71
2023/12/05 04:20:19;;;;;;;15.23;11.30;;;;;;;5.76;68.10;99738.66;5064417;28;20045;-71
2023/12/05 04:22:47;;;;;;;13.25;10.55;;;;;;;5.76;68.04;99736.00;5062334;28;20045;-71
2023/12/05 04:25:15;;;;;;;13.48;10.85;;;;;;;5.76;67.95;99741.31;5065120;28;20072;-71
2023/12/05 04:27:45;;;;;;;14.02;10.50;;;;;;;5.74;67.80;99734.56;5071214;28;20106;-71
2023/12/05 04:30:13;;;;;;;14.05;10.25;;;;;;;5.76;67.94;99738.66;5060111;28;20076;-71
2023/12/05 04:32:41;;;;;;;15.38;11.30;;;;;;;5.77;67.72;99740.28;5064245;28;20078;-71
2023/12/05 04:35:09;;;;;;;14.63;10.93;;;;;;;5.73;68.03;99736.44;5063769;28;20121;-70
2023/12/05 04:37:37;;;;;;;14.55;10.00;;;;;;;5.78;67.83;99754.44;5060514;28;20045;-71
2023/12/05 04:40:09;;;;;;;15.90;12.10;;;;;;;5.79;67.96;99759.56;5061557;28;20053;-71
2023/12/05 04:42:37;;;;;;;14.80;11.15;;;;;;;5.79;67.93;99751.56;5061580;28;20045;-72
2023/12/05 04:45:08;;;;;;;15.07;11.07;;;;;;;5.78;68.24;99759.75;5066408;28;20167;-70
2023/12/05 04:47:35;;;;;;;15.07;11.43;;;;;;;5.78;68.00;99755.25;5062784;28;20041;-70
2023/12/05 04:50:04;;;;;;;13.27;10.35;;;;;;;5.78;67.70;99757.91;5059798;28;20057;-71
2023/12/05 04:52:31;;;;;;;15.02;10.45;;;;;;;5.78;68.04;99763.25;5062601;28;20055;-70
2023/12/05 04:54:59;;;;;;;17.85;10.63;;;;;;;5.79;68.20;99764.06;5065830;28;20514;-70
2023/12/05 04:57:28;;;;;;;15.30;11.73;;;;;;;5.78;68.31;99765.09;5071729;28;20071;-71
2023/12/05 04:59:56;;;;;;;14.48;10.88;;;;;;;5.77;68.38;99763.47;5059142;28;20052;-70
2023/12/05 05:02:25;;;;;;;13.95;10.45;;;;;;;5.76;68.24;99762.66;5065983;28;20052;-71
2023/12/05 05:04:53;;;;;;;14.35;11.15;;;;;;;5.78;68.58;99767.75;5061201;28;20056;-70
2023/12/05 05:07:22;;;;;;;14.30;11.18;;;;;;;5.76;68.36;99767.97;5061219;28;20108;-71
2023/12/05 05:09:50;;;;;;;13.65;10.45;;;;;;;5.75;68.22;99774.34;5064617;28;20465;-71
2023/12/05 05:12:17;;;;;;;13.15;10.27;;;;;;;5.77;68.65;99774.94;5064455;28;20045;-72
2023/12/05 05:14:45;;;;;;;14.85;10.75;;;;;;;5.77;68.61;99771.47;5056415;28;20077;-71
2023/12/05 05:17:13;;;;;;;15.23;10.68;;;;;;;5.70;68.38;99758.19;5055456;28;20162;-71
2023/12/05 05:19:42;;;;;;;12.82;10.80;;;;;;;5.78;68.74;99768.59;5065208;28;20234;-72
2023/12/05 05:22:10;;;;;;;14.73;11.00;;;;;;;5.79;68.92;99778.22;5066704;28;20090;-73
2023/12/05 05:24:38;;;;;;;14.57;11.05;;;;;;;5.80;68.59;99777.19;5073085;28;20045;-72
2023/12/05 05:27:06;;;;;;;14.15;11.25;;;;;;;5.81;68.90;99778.00;5064492;28;20118;-72
2023/12/05 05:29:34;;;;;;;14.13;10.48;;;;;;;5.81;69.06;99778.81;5064223;28;20044;-71
2023/12/05 05:32:01;;;;;;;17.70;11.27;;;;;;;5.82;68.98;99784.97;5055495;28;20135;-73
2023/12/05 05:34:29;;;;;;;14.07;10.95;;;;;;;5.80;69.00;99779.03;5059695;28;20501;-71
2023/12/05 05:36:58;;;;;;;15.85;12.63;;;;;;;5.82;68.79;99787.63;5059856;28;20230;-71
2023/12/05 05:39:26;;;;;;;17.50;12.35;;;;;;;5.81;69.10;99786.00;5058864;28;20103;-71
2023/12/05 05:41:54;;;;;;;15.45;12.30;;;;;;;5.82;68.99;99785.78;5046366;28;20089;-70
2023/12/05 05:44:22;;;;;;;16.75;12.85;;;;;;;5.81;69.35;99781.47;5050500;28;20080;-71
2023/12/05 05:46:50;;;;;;;14.63;11.48;;;;;;;5.82;69.26;99782.28;5054520;28;20052;-70
2023/12/05 05:49:17;;;;;;;17.35;12.80;;;;;;;5.82;69.28;99792.97;5062280;28;20048;-68
2023/12/05 05:51:45;;;;;;;17.33;13.00;;;;;;;5.80;69.16;99795.84;5055563;28;20156;-68
2023/12/05 05:54:15;;;;;;;15.95;12.38;;;;;;;5.81;69.44;99799.31;5051527;28;20108;-67
2023/12/05 05:56:42;;;;;;;15.50;12.85;;;;;;;5.80;69.67;99787.84;5044685;28;20053;-70
2023/12/05 05:59:10;;;;;;;17.02;13.15;;;;;;;5.80;69.43;99792.34;5068625;28;20052;-71
2023/12/05 06:01:38;;;;;;;16.63;12.73;;;;;;;5.82;69.59;99798.28;5060500;28;20068;-70
2023/12/05 06:04:06;;;;;;;18.35;13.50;;;;;;;5.82;69.85;99798.28;5074900;28;20048;-69
2023/12/05 06:06:34;;;;;;;15.57;12.27;;;;;;;5.84;69.87;99793.56;5064894;28;20172;-71
2023/12/05 06:09:01;;;;;;;15.98;12.80;;;;;;;5.91;69.76;99797.03;5062181;28;20067;-70
2023/12/05 06:11:31;;;;;;;16.90;12.00;;;;;;;5.98;69.14;99802.31;5059929;28;20048;-70
2023/12/05 06:13:59;;;;;;;16.80;12.10;;;;;;;6.03;68.74;99802.47;5060100;28;20048;-71
2023/12/05 06:16:26;;;;;;;16.65;13.25;;;;;;;6.04;68.63;99809.44;5061549;28;20044;-65
2023/12/05 06:18:54;;;;;;;17.75;12.52;;;;;;;6.06;68.60;99810.84;5058593;28;20049;-73
2023/12/05 06:21:22;;;;;;;15.15;11.68;;;;;;;6.12;68.68;99809.16;5061073;28;20049;-71
2023/12/05 06:23:50;;;;;;;14.70;11.63;;;;;;;6.26;67.90;99807.19;5063779;28;20167;-73
2023/12/05 06:26:19;;;;;;;16.45;12.05;;;;;;;6.42;67.43;99809.31;5060901;28;20107;-72
2023/12/05 06:28:48;;;;;;;15.32;11.38;;;;;;;6.55;67.33;99805.69;5055264;28;20529;-68
2023/12/05 06:31:16;;;;;;;13.68;10.88;;;;;;;6.69;66.63;99804.50;5058073;28;20056;-69
2023/12/05 06:33:46;;;;;;;14.32;11.07;;;;;;;6.79;66.04;99812.81;5061363;28;20086;-70
2023/12/05 06:36:14;;;;;;;14.77;11.20;;;;;;;6.77;66.31;99825.59;5058321;28;20063;-68
2023/12/05 06:38:42;;;;;;;15.88;11.82;;;;;;;6.69;66.32;99825.88;5061573;28;20477;-67
2023/12/05 06:41:10;;;;;;;13.85;11.35;;;;;;;6.61;67.16;99834.97;5060430;28;20071;-68
2023/12/05 06:43:38;;;;;;;14.93;11.90;;;;;;;6.53;67.20;99830.75;5054524;28;20103;-68
2023/12/05 06:46:08;;;;;;;13.95;11.15;;;;;;;6.43;67.48;99829.63;4706166;28;10000318;-66
2023/12/05 06:48:36;;;;;;;14.60;11.73;;;;;;;6.39;68.20;99833.75;5063840;28;20110;-68
2023/12/05 06:51:05;;;;;;;15.13;11.88;;;;;;;6.33;67.76;99831.97;5054813;28;20144;-64
2023/12/05 06:53:33;;;;;;;16.30;12.80;;;;;;;6.24;68.29;99843.94;5058262;28;20061;-65
2023/12/05 06:56:06;;;;;;;15.88;12.20;;;;;;;6.22;68.48;99849.50;5059996;28;20402;-66
2023/12/05 06:58:34;;;;;;;15.88;11.05;;;;;;;6.16;68.71;99859.19;5058930;28;20067;-67
2023/12/05 07:01:02;;;;;;;15.48;11.85;;;;;;;6.11;68.73;99856.34;5059793;28;20060;-64
2023/12/05 07:03:31;;;;;;;15.93;12.68;;;;;;;6.09;68.91;99858.44;5064474;28;20052;-65
2023/12/05 07:06:10;;;;;;;18.05;13.57;;;;;;;6.09;69.08;99854.94;5056791;28;20041;-72
2023/12/05 07:08:39;;;;;;;16.42;12.52;;;;;;;6.06;69.08;99858.88;5058067;28;20068;-72
2023/12/05 07:11:07;;;;;;;17.75;13.10;;;;;;;6.05;69.42;99864.41;5054215;28;20058;-68
2023/12/05 07:13:35;;;;;;;15.13;12.15;;;;;;;6.02;69.33;99867.50;5065467;28;20044;-68
2023/12/05 07:16:03;;;;;;;15.98;12.60;;;;;;;5.95;69.96;99870.22;5059093;28;20048;-72
2023/12/05 07:18:33;;;;;;;17.27;12.88;;;;;;;5.98;70.16;99871.66;5063843;28;20524;-71
2023/12/05 07:21:01;;;;;;;19.13;13.77;;;;;;;5.97;69.51;99875.34;5066361;28;20044;-72
2023/12/05 07:23:29;;;;;;;17.33;13.18;;;;;;;5.94;69.60;99881.91;5074163;28;20053;-72
2023/12/05 07:25:56;;;;;;;17.20;12.85;;;;;;;5.93;70.00;99888.28;5063785;28;20071;-71
2023/12/05 07:28:24;;;;;;;18.80;13.93;;;;;;;5.96;70.21;99895.03;5064553;28;20120;-72
2023/12/05 07:30:52;;;;;;;19.13;14.63;;;;;;;5.98;70.30;99892.97;5075232;28;20049;-71
2023/12/05 07:33:22;;;;;;;19.65;14.18;;;;;;;5.95;69.80;99896.06;5063602;28;20087;-72
2023/12/05 07:35:51;;;;;;;19.52;15.23;;;;;;;5.96;69.96;99897.72;5063412;28;20077;-72
2023/12/05 07:38:19;;;;;;;20.27;14.50;;;;;;;5.94;69.94;99897.94;5058160;28;20045;-72
2023/12/05 07:40:47;;;;;;;20.67;15.05;;;;;;;5.93;70.38;99903.47;5079634;28;20045;-73
2023/12/05 07:43:15;;;;;;;20.48;15.50;;;;;;;5.97;70.25;99899.34;5071135;28;20110;-72
2023/12/05 07:45:43;;;;;;;22.77;16.10;;;;;;;5.97;69.93;99913.50;5072169;28;20263;-72
2023/12/05 07:48:11;;;;;;;22.45;15.93;;;;;;;5.96;70.06;99916.38;5067241;28;20076;-72
2023/12/05 07:50:40;;;;;;;21.50;15.35;;;;;;;5.93;70.12;99917.63;5064630;28;20038;-72
2023/12/05 07:53:09;;;;;;;21.45;16.63;;;;;;;5.92;70.30;99921.31;5051267;28;20386;-72
2023/12/05 07:55:37;;;;;;;21.40;16.05;;;;;;;5.85;70.11;99923.19;5066355;28;20079;-71
2023/12/05 07:58:05;;;;;;;23.00;16.70;;;;;;;5.86;70.50;99936.28;5065923;28;20045;-72
2023/12/05 08:00:34;;;;;;;20.52;15.38;;;;;;;5.87;70.58;99929.13;5065297;28;20049;-72
2023/12/05 08:03:02;;;;;;;22.33;15.85;;;;;;;5.90;70.17;99939.38;5066897;28;20053;-71
2023/12/05 08:05:30;;;;;;;23.17;16.63;;;;;;;5.90;70.60;99942.06;5066645;28;20053;-71
2023/12/05 08:07:58;;;;;;;24.83;16.70;;;;;;;5.89;70.41;99945.75;5065933;28;20148;-71
2023/12/05 08:10:27;;;;;;;23.30;16.55;;;;;;;5.88;70.38;99946.75;5073105;28;20041;-72
2023/12/05 08:12:55;;;;;;;23.80;16.30;;;;;;;5.92;70.79;99955.16;5066306;28;20526;-72
2023/12/05 08:15:23;;;;;;;24.70;16.30;;;;;;;5.93;70.41;99956.81;5078575;28;20048;-72
2023/12/05 08:17:50;;;;;;;24.30;16.50;;;;;;;5.92;70.50;99955.16;5068639;28;20061;-73
2023/12/05 08:20:18;;;;;;;21.52;16.15;;;;;;;5.94;69.98;99956.59;5065305;28;20052;-73
2023/12/05 08:22:46;;;;;;;23.15;16.33;;;;;;;6.00;70.34;99957.59;5066608;28;20056;-73
2023/12/05 08:25:14;;;;;;;22.27;15.60;;;;;;;6.00;70.40;99960.25;5066300;28;20075;-72
2023/12/05 08:27:43;;;;;;;23.88;16.67;;;;;;;5.98;70.22;99965.81;5077853;28;20420;-73
2023/12/05 08:30:12;;;;;;;22.23;15.55;;;;;;;5.98;69.96;99964.97;5069484;28;20048;-72
2023/12/05 08:32:40;;;;;;;22.08;16.33;;;;;;;5.94;70.46;99977.09;5066887;28;20052;-73
2023/12/05 08:35:09;;;;;;;19.92;14.77;;;;;;;5.89;70.57;99983.06;5065964;28;20120;-73
2023/12/05 08:37:37;;;;;;;25.35;17.70;;;;;;;5.86;70.82;99989.63;5064340;28;20076;-73
2023/12/05 08:40:06;;;;;;;23.50;16.02;;;;;;;5.93;70.70;99992.28;5069459;28;20048;-73
2023/12/05 08:42:34;;;;;;;24.60;17.80;;;;;;;5.95;70.86;99992.06;5065994;28;20053;-73
2023/12/05 08:45:03;;;;;;;23.30;16.77;;;;;;;5.90;70.73;99991.91;5057639;28;20088;-73
2023/12/05 08:47:31;;;;;;;23.30;16.27;;;;;;;5.90;70.59;99991.91;5066667;28;20445;-73
2023/12/05 08:49:59;;;;;;;23.33;16.55;;;;;;;5.91;70.68;99997.00;5047090;28;20564;-74
2023/12/05 08:52:27;;;;;;;23.98;15.88;;;;;;;5.93;70.50;99994.13;5065697;28;20053;-73
2023/12/05 08:54:55;;;;;;;24.02;16.67;;;;;;;5.92;70.74;99993.31;5064782;28;20386;-73
2023/12/05 08:57:23;;;;;;;23.25;17.05;;;;;;;5.87;70.43;99988.59;5065528;28;20099;-73
2023/12/05 08:59:51;;;;;;;22.08;15.93;;;;;;;5.89;70.43;100001.75;5066294;28;20049;-73
2023/12/05 09:02:21;;;;;;;24.25;15.90;;;;;;;5.90;70.46;100006.03;5077164;28;20049;-72
2023/12/05 09:04:49;;;;;;;24.45;16.73;;;;;;;5.90;70.64;100005.22;5069722;28;20056;-72
2023/12/05 09:07:17;;;;;;;25.85;17.52;;;;;;;5.90;70.22;100013.22;5086084;28;20055;-73
2023/12/05 09:09:45;;;;;;;24.70;17.10;;;;;;;5.90;70.42;100013.22;5072933;28;20506;-73
2023/12/05 09:12:13;;;;;;;24.63;16.38;;;;;;;5.88;70.58;100022.22;5081255;28;20051;-73
2023/12/05 09:14:40;;;;;;;23.35;15.95;;;;;;;5.90;70.33;100019.38;5075707;28;20049;-73
2023/12/05 09:17:09;;;;;;;23.77;16.42;;;;;;;5.90;70.15;100029.22;5080263;28;20056;-73
2023/12/05 09:19:38;;;;;;;23.92;16.70;;;;;;;5.91;70.23;100029.03;5054318;28;20191;-72
2023/12/05 09:22:06;;;;;;;27.92;17.77;;;;;;;5.92;70.17;100027.16;5066117;28;20049;-73
2023/12/05 09:24:34;;;;;;;24.50;16.88;;;;;;;5.90;70.37;100037.22;5065825;28;20613;-72
2023/12/05 09:27:02;;;;;;;24.85;16.77;;;;;;;5.94;70.12;100041.09;5064056;28;20049;-73
2023/12/05 09:29:31;;;;;;;24.33;16.58;;;;;;;5.95;70.14;100045.41;5045125;28;20083;-73
2023/12/05 09:31:58;;;;;;;22.67;16.17;;;;;;;5.91;70.26;100046.88;5076010;28;20118;-73
2023/12/05 09:34:26;;;;;;;24.10;16.60;;;;;;;5.90;70.53;100046.03;5085436;28;20060;-73
2023/12/05 09:36:55;;;;;;;26.85;17.38;;;;;;;5.87;70.43;100052.59;5071768;28;20051;-72
2023/12/05 09:39:23;;;;;;;21.58;14.73;;;;;;;5.87;70.10;100055.25;5065239;28;20049;-73
2023/12/05 09:41:53;;;;;;;23.83;15.88;;;;;;;5.90;70.45;100061.22;5074836;28;20471;-73
2023/12/05 09:44:22;;;;;;;26.52;16.92;;;;;;;5.87;70.61;100065.91;5084422;28;20055;-73
2023/12/05 09:46:52;;;;;;;27.05;17.08;;;;;;;5.85;70.28;100064.50;5078823;28;20509;-73
2023/12/05 09:49:23;;;;;;;24.25;16.10;;;;;;;5.76;70.72;100063.91;5067852;28;20056;-73
2023/12/05 09:51:51;;;;;;;25.08;16.90;;;;;;;5.80;70.13;100069.63;5072897;28;20064;-74
2023/12/05 09:54:21;;;;;;;25.95;16.38;;;;;;;5.83;70.28;100072.69;5061567;28;20057;-73
2023/12/05 09:56:49;;;;;;;26.65;16.05;;;;;;;5.83;70.54;100070.03;5053333;28;20049;-73
2023/12/05 09:59:19;;;;;;;23.98;15.90;;;;;;;5.84;70.50;100078.84;5062876;28;20131;-73
2023/12/05 10:01:48;;;;;;;25.73;15.70;;;;;;;5.90;70.15;100079.91;5074143;28;20052;-73
2023/12/05 10:04:18;;;;;;;26.15;16.60;;;;;;;5.88;70.23;100080.06;5084800;28;20049;-73
2023/12/05 10:06:48;;;;;;;24.88;16.17;;;;;;;5.87;70.22;100078.44;5084824;28;20052;-73
2023/12/05 10:09:20;;;;;;;27.65;17.50;;;;;;;5.88;70.15;100091.56;5065202;28;20048;-73
2023/12/05 10:11:50;;;;;;;25.33;16.15;;;;;;;5.93;69.55;100090.13;5068658;28;20048;-74
2023/12/05 10:14:18;;;;;;;25.08;17.10;;;;;;;5.92;69.91;100099.16;5084079;28;20078;-73
2023/12/05 10:16:46;;;;;;;24.63;16.55;;;;;;;5.91;70.21;100100.19;5073038;28;20129;-75
2023/12/05 10:19:14;;;;;;;25.23;16.05;;;;;;;5.92;70.24;100104.50;5079326;28;20147;-74
2023/12/05 10:21:44;;;;;;;27.75;17.63;;;;;;;5.89;69.93;100111.06;5062780;28;20415;-73
2023/12/05 10:24:12;;;;;;;29.73;17.25;;;;;;;5.88;70.06;100112.88;5048104;28;20045;-74
2023/12/05 10:26:45;;;;;;;30.08;17.85;;;;;;;5.84;69.91;100117.00;5056745;28;20068;-73
2023/12/05 10:29:15;;;;;;;26.25;16.45;;;;;;;5.87;70.29;100121.91;5060784;28;20049;-72
2023/12/05 10:31:43;;;;;;;27.88;18.00;;;;;;;5.87;70.28;100115.78;5080682;28;20056;-73
2023/12/05 10:34:11;;;;;;;24.90;15.60;;;;;;;5.87;70.27;100116.59;5084349;28;20045;-73
2023/12/05 10:36:39;;;;;;;27.63;16.50;;;;;;;5.91;69.94;100121.53;5066720;28;20065;-73
2023/12/05 10:39:07;;;;;;;25.23;15.43;;;;;;;5.93;69.80;100116.81;5063348;28;20041;-73
2023/12/05 10:41:35;;;;;;;29.42;16.67;;;;;;;5.86;70.20;100124.78;5075591;28;20044;-72
2023/12/05 10:44:02;;;;;;;30.13;16.90;;;;;;;5.78;70.61;100120.50;5083871;28;20050;-72
2023/12/05 10:46:35;;;;;;;27.17;17.65;;;;;;;5.81;70.52;100125.41;5081513;28;20052;-73
2023/12/05 10:49:06;;;;;;;28.75;17.50;;;;;;;5.75;70.32;100123.59;5064101;28;20114;-72
2023/12/05 10:51:34;;;;;;;25.35;16.25;;;;;;;5.58;70.87;100122.38;5069327;28;20045;-72
2023/12/05 10:54:02;;;;;;;28.48;17.48;;;;;;;5.63;71.24;100137.75;5063825;28;20055;-73
2023/12/05 10:56:30;;;;;;;30.15;18.00;;;;;;;5.68;71.09;100128.09;5064022;28;20063;-71
2023/12/05 10:58:58;;;;;;;28.08;15.88;;;;;;;5.72;70.82;100139.19;5064043;28;20052;-72
2023/12/05 11:01:28;;;;;;;28.30;16.83;;;;;;;5.76;70.84;100143.88;5070336;28;20074;-72
2023/12/05 11:04:00;;;;;;;30.25;17.95;;;;;;;5.65;71.88;100139.19;5061250;28;20064;-69
2023/12/05 11:06:28;;;;;;;29.30;17.50;;;;;;;5.74;71.32;100142.47;5054268;28;20049;-67
2023/12/05 11:08:56;;;;;;;31.85;18.60;;;;;;;5.90;71.04;100149.22;5053043;28;20087;-67
2023/12/05 11:11:25;;;;;;;30.17;17.17;;;;;;;6.07;70.20;100151.25;5064724;28;20045;-66
2023/12/05 11:13:54;;;;;;;26.83;16.10;;;;;;;6.24;69.87;100145.44;5059641;28;20049;-67
2023/12/05 11:16:27;;;;;;;26.73;16.13;;;;;;;6.37;69.71;100145.41;5058983;28;20118;-65
2023/12/05 11:19:09;;;;;;;21.98;13.98;;;;;;;6.58;68.82;100160.28;5052541;28;20052;-70
2023/12/05 11:21:51;;;;;;;22.73;15.45;;;;;;;6.76;67.59;100152.41;5057497;28;20040;-69
2023/12/05 11:24:39;;;;;;;21.65;14.27;;;;;;;6.95;67.58;100159.44;5074467;28;20053;-71
2023/12/05 11:27:23;;;;;;;21.33;13.30;;;;;;;7.10;67.17;100162.63;5056210;28;20049;-68
2023/12/05 11:30:25;;;;;;;21.83;13.95;;;;;;;7.23;65.60;100163.56;5060255;28;20077;-68
2023/12/05 11:33:05;;;;;;;19.48;12.15;;;;;;;7.26;65.99;100171.16;5064923;28;20052;-68
2023/12/05 11:35:48;;;;;;;19.05;12.43;;;;;;;7.26;65.58;100165.81;5063322;28;20505;-68